sensor_id;sensor_type;location;lat;lon;timestamp;P1;durP1;ratioP1;P2;durP2;ratioP2
3333;SDS011;1679;50.392;8.008;2023-07-16T00:00:14;3.27;;;2.27;;
3333;SDS011;1679;50.392;8.008;2023-07-16T00:02:43;2.40;;;2.30;;
3333;SDS011;1679;50.392;8.008;2023-07-16T00:05:08;2.10;;;1.90;;
3333;SDS011;1679;50.392;8.008;2023-07-16T00:07:34;2.20;;;2.00;;
3333;SDS011;1679;50.392;8.008;2023-07-16T00:10:01;2.57;;;1.90;;
3333;SDS011;1679;50.392;8.008;2023-07-16T00:12:27;2.23;;;2.13;;
3333;SDS011;1679;50.392;8.008;2023-07-16T00:14:52;2.50;;;2.30;;
3333;SDS011;1679;50.392;8.008;2023-07-16T00:17:18;1.90;;;1.80;;
3333;SDS011;1679;50.392;8.008;2023-07-16T00:19:43;2.30;;;2.10;;
3333;SDS011;1679;50.392;8.008;2023-07-16T00:22:09;2.03;;;1.93;;
3333;SDS011;1679;50.392;8.008;2023-07-16T00:24:34;1.77;;;1.67;;
3333;SDS011;1679;50.392;8.008;2023-07-16T00:27:00;3.10;;;2.20;;
3333;SDS011;1679;50.392;8.008;2023-07-16T00:29:25;2.00;;;1.87;;
3333;SDS011;1679;50.392;8.008;2023-07-16T00:31:51;2.00;;;1.90;;
3333;SDS011;1679;50.392;8.008;2023-07-16T00:34:16;1.53;;;1.30;;
3333;SDS011;1679;50.392;8.008;2023-07-16T00:36:42;1.97;;;1.77;;
3333;SDS011;1679;50.392;8.008;2023-07-16T00:39:07;1.60;;;1.50;;
3333;SDS011;1679;50.392;8.008;2023-07-16T00:41:34;1.97;;;1.30;;
3333;SDS011;1679;50.392;8.008;2023-07-16T00:43:59;2.03;;;1.57;;
3333;SDS011;1679;50.392;8.008;2023-07-16T00:46:25;2.10;;;1.77;;
3333;SDS011;1679;50.392;8.008;2023-07-16T00:48:50;2.27;;;1.70;;
3333;SDS011;1679;50.392;8.008;2023-07-16T00:51:17;4.63;;;1.80;;
3333;SDS011;1679;50.392;8.008;2023-07-16T00:53:44;2.83;;;1.70;;
3333;SDS011;1679;50.392;8.008;2023-07-16T00:56:10;1.83;;;1.63;;
3333;SDS011;1679;50.392;8.008;2023-07-16T00:58:36;3.23;;;1.63;;
3333;SDS011;1679;50.392;8.008;2023-07-16T01:01:02;1.70;;;1.60;;
3333;SDS011;1679;50.392;8.008;2023-07-16T01:03:28;2.10;;;1.80;;
3333;SDS011;1679;50.392;8.008;2023-07-16T01:08:53;2.60;;;1.40;;
3333;SDS011;1679;50.392;8.008;2023-07-16T01:11:26;3.20;;;1.90;;
3333;SDS011;1679;50.392;8.008;2023-07-16T01:13:52;2.90;;;1.40;;
3333;SDS011;1679;50.392;8.008;2023-07-16T01:16:19;2.10;;;1.33;;
3333;SDS011;1679;50.392;8.008;2023-07-16T01:18:47;2.37;;;1.60;;
3333;SDS011;1679;50.392;8.008;2023-07-16T01:21:15;2.67;;;1.50;;
3333;SDS011;1679;50.392;8.008;2023-07-16T01:32:18;1.80;;;1.50;;
3333;SDS011;1679;50.392;8.008;2023-07-16T01:34:45;2.50;;;1.80;;
3333;SDS011;1679;50.392;8.008;2023-07-16T01:37:11;2.13;;;1.73;;
3333;SDS011;1679;50.392;8.008;2023-07-16T01:39:37;5.20;;;2.70;;
3333;SDS011;1679;50.392;8.008;2023-07-16T01:42:04;3.10;;;2.13;;
3333;SDS011;1679;50.392;8.008;2023-07-16T01:44:30;2.43;;;1.73;;
3333;SDS011;1679;50.392;8.008;2023-07-16T01:47:10;4.40;;;2.40;;
3333;SDS011;1679;50.392;8.008;2023-07-16T01:49:37;2.90;;;1.80;;
3333;SDS011;1679;50.392;8.008;2023-07-16T01:52:03;3.93;;;2.17;;
3333;SDS011;1679;50.392;8.008;2023-07-16T01:54:30;3.00;;;1.90;;
3333;SDS011;1679;50.392;8.008;2023-07-16T01:56:55;4.30;;;1.80;;
3333;SDS011;1679;50.392;8.008;2023-07-16T01:59:21;6.70;;;2.67;;
3333;SDS011;1679;50.392;8.008;2023-07-16T02:01:46;2.80;;;2.60;;
3333;SDS011;1679;50.392;8.008;2023-07-16T02:04:11;4.53;;;1.77;;
3333;SDS011;1679;50.392;8.008;2023-07-16T02:06:38;2.30;;;1.90;;
3333;SDS011;1679;50.392;8.008;2023-07-16T02:09:03;2.80;;;2.00;;
3333;SDS011;1679;50.392;8.008;2023-07-16T02:11:31;4.10;;;2.00;;
3333;SDS011;1679;50.392;8.008;2023-07-16T02:13:56;6.23;;;2.27;;
3333;SDS011;1679;50.392;8.008;2023-07-16T02:16:23;2.20;;;2.00;;
3333;SDS011;1679;50.392;8.008;2023-07-16T02:18:48;3.10;;;2.00;;
3333;SDS011;1679;50.392;8.008;2023-07-16T02:21:15;2.30;;;1.80;;
3333;SDS011;1679;50.392;8.008;2023-07-16T02:23:40;2.17;;;1.97;;
3333;SDS011;1679;50.392;8.008;2023-07-16T02:26:06;6.33;;;2.20;;
3333;SDS011;1679;50.392;8.008;2023-07-16T02:28:31;2.77;;;1.70;;
3333;SDS011;1679;50.392;8.008;2023-07-16T02:30:57;5.27;;;2.10;;
3333;SDS011;1679;50.392;8.008;2023-07-16T02:33:23;3.30;;;2.00;;
3333;SDS011;1679;50.392;8.008;2023-07-16T02:35:49;2.80;;;2.17;;
3333;SDS011;1679;50.392;8.008;2023-07-16T02:38:17;4.70;;;2.00;;
3333;SDS011;1679;50.392;8.008;2023-07-16T02:40:46;4.10;;;2.50;;
3333;SDS011;1679;50.392;8.008;2023-07-16T02:43:13;3.17;;;1.63;;
3333;SDS011;1679;50.392;8.008;2023-07-16T02:45:39;4.60;;;2.00;;
3333;SDS011;1679;50.392;8.008;2023-07-16T02:48:05;1.90;;;1.80;;
3333;SDS011;1679;50.392;8.008;2023-07-16T02:50:38;2.53;;;2.03;;
3333;SDS011;1679;50.392;8.008;2023-07-16T02:53:04;4.23;;;2.63;;
3333;SDS011;1679;50.392;8.008;2023-07-16T02:55:30;2.83;;;2.03;;
3333;SDS011;1679;50.392;8.008;2023-07-16T02:57:56;2.40;;;2.20;;
3333;SDS011;1679;50.392;8.008;2023-07-16T03:00:22;4.70;;;2.30;;
3333;SDS011;1679;50.392;8.008;2023-07-16T03:02:48;3.33;;;2.03;;
3333;SDS011;1679;50.392;8.008;2023-07-16T03:05:15;3.23;;;1.83;;
3333;SDS011;1679;50.392;8.008;2023-07-16T03:07:41;2.60;;;1.90;;
3333;SDS011;1679;50.392;8.008;2023-07-16T03:10:07;1.80;;;1.70;;
3333;SDS011;1679;50.392;8.008;2023-07-16T03:12:33;5.20;;;2.30;;
3333;SDS011;1679;50.392;8.008;2023-07-16T03:14:59;2.40;;;2.00;;
3333;SDS011;1679;50.392;8.008;2023-07-16T03:17:24;6.67;;;2.20;;
3333;SDS011;1679;50.392;8.008;2023-07-16T03:19:50;2.80;;;2.20;;
3333;SDS011;1679;50.392;8.008;2023-07-16T03:22:17;2.60;;;2.40;;
3333;SDS011;1679;50.392;8.008;2023-07-16T03:24:42;2.97;;;2.70;;
3333;SDS011;1679;50.392;8.008;2023-07-16T03:27:08;3.47;;;1.90;;
3333;SDS011;1679;50.392;8.008;2023-07-16T03:29:33;4.70;;;1.93;;
3333;SDS011;1679;50.392;8.008;2023-07-16T03:31:59;5.23;;;2.50;;
3333;SDS011;1679;50.392;8.008;2023-07-16T03:34:24;3.47;;;2.17;;
3333;SDS011;1679;50.392;8.008;2023-07-16T03:36:50;6.83;;;2.63;;
3333;SDS011;1679;50.392;8.008;2023-07-16T03:39:16;5.67;;;2.30;;
3333;SDS011;1679;50.392;8.008;2023-07-16T03:41:42;3.30;;;2.60;;
3333;SDS011;1679;50.392;8.008;2023-07-16T03:44:08;2.73;;;1.87;;
3333;SDS011;1679;50.392;8.008;2023-07-16T03:46:34;3.10;;;2.30;;
3333;SDS011;1679;50.392;8.008;2023-07-16T03:48:59;3.20;;;2.00;;
3333;SDS011;1679;50.392;8.008;2023-07-16T03:51:25;6.80;;;2.40;;
3333;SDS011;1679;50.392;8.008;2023-07-16T03:53:52;3.17;;;2.30;;
3333;SDS011;1679;50.392;8.008;2023-07-16T03:56:17;2.60;;;2.40;;
3333;SDS011;1679;50.392;8.008;2023-07-16T03:58:43;3.17;;;2.17;;
3333;SDS011;1679;50.392;8.008;2023-07-16T04:01:10;2.57;;;1.80;;
3333;SDS011;1679;50.392;8.008;2023-07-16T04:03:36;3.30;;;1.93;;
3333;SDS011;1679;50.392;8.008;2023-07-16T04:06:02;3.97;;;2.30;;
3333;SDS011;1679;50.392;8.008;2023-07-16T04:08:34;4.30;;;2.40;;
3333;SDS011;1679;50.392;8.008;2023-07-16T04:11:00;2.70;;;1.87;;
3333;SDS011;1679;50.392;8.008;2023-07-16T04:13:25;3.10;;;2.10;;
3333;SDS011;1679;50.392;8.008;2023-07-16T04:15:51;4.53;;;2.77;;
3333;SDS011;1679;50.392;8.008;2023-07-16T04:18:18;1.93;;;1.73;;
3333;SDS011;1679;50.392;8.008;2023-07-16T04:20:43;2.93;;;2.20;;
3333;SDS011;1679;50.392;8.008;2023-07-16T04:23:09;3.77;;;2.23;;
3333;SDS011;1679;50.392;8.008;2023-07-16T04:25:34;5.57;;;2.20;;
3333;SDS011;1679;50.392;8.008;2023-07-16T04:28:00;2.20;;;1.80;;
3333;SDS011;1679;50.392;8.008;2023-07-16T04:30:28;2.50;;;2.27;;
3333;SDS011;1679;50.392;8.008;2023-07-16T04:32:54;3.47;;;2.20;;
3333;SDS011;1679;50.392;8.008;2023-07-16T04:35:20;2.87;;;2.57;;
3333;SDS011;1679;50.392;8.008;2023-07-16T04:37:46;8.13;;;1.67;;
3333;SDS011;1679;50.392;8.008;2023-07-16T04:40:12;3.57;;;2.00;;
3333;SDS011;1679;50.392;8.008;2023-07-16T04:42:39;4.23;;;2.40;;
3333;SDS011;1679;50.392;8.008;2023-07-16T04:45:06;4.53;;;2.27;;
3333;SDS011;1679;50.392;8.008;2023-07-16T04:47:31;3.50;;;2.40;;
3333;SDS011;1679;50.392;8.008;2023-07-16T04:49:57;5.17;;;2.03;;
3333;SDS011;1679;50.392;8.008;2023-07-16T04:52:24;4.20;;;2.30;;
3333;SDS011;1679;50.392;8.008;2023-07-16T04:54:50;2.50;;;1.93;;
3333;SDS011;1679;50.392;8.008;2023-07-16T04:57:16;2.87;;;2.50;;
3333;SDS011;1679;50.392;8.008;2023-07-16T04:59:41;4.73;;;1.80;;
3333;SDS011;1679;50.392;8.008;2023-07-16T05:02:07;2.43;;;1.80;;
3333;SDS011;1679;50.392;8.008;2023-07-16T05:04:33;4.60;;;2.50;;
3333;SDS011;1679;50.392;8.008;2023-07-16T05:06:59;3.13;;;1.90;;
3333;SDS011;1679;50.392;8.008;2023-07-16T05:09:25;2.60;;;2.00;;
3333;SDS011;1679;50.392;8.008;2023-07-16T05:11:51;4.47;;;1.87;;
3333;SDS011;1679;50.392;8.008;2023-07-16T05:14:17;6.13;;;2.30;;
3333;SDS011;1679;50.392;8.008;2023-07-16T05:16:42;1.97;;;1.83;;
3333;SDS011;1679;50.392;8.008;2023-07-16T05:19:08;5.10;;;2.80;;
3333;SDS011;1679;50.392;8.008;2023-07-16T05:21:33;2.97;;;1.80;;
3333;SDS011;1679;50.392;8.008;2023-07-16T05:24:00;4.40;;;2.40;;
3333;SDS011;1679;50.392;8.008;2023-07-16T05:26:25;3.00;;;1.90;;
3333;SDS011;1679;50.392;8.008;2023-07-16T05:28:51;2.87;;;1.93;;
3333;SDS011;1679;50.392;8.008;2023-07-16T05:31:16;6.17;;;2.37;;
3333;SDS011;1679;50.392;8.008;2023-07-16T05:33:42;4.33;;;2.00;;
3333;SDS011;1679;50.392;8.008;2023-07-16T05:36:07;4.37;;;1.93;;
3333;SDS011;1679;50.392;8.008;2023-07-16T05:38:33;4.50;;;2.60;;
3333;SDS011;1679;50.392;8.008;2023-07-16T05:41:02;5.47;;;2.40;;
3333;SDS011;1679;50.392;8.008;2023-07-16T05:43:29;4.30;;;2.33;;
3333;SDS011;1679;50.392;8.008;2023-07-16T05:45:56;3.40;;;2.47;;
3333;SDS011;1679;50.392;8.008;2023-07-16T05:48:24;4.40;;;2.83;;
3333;SDS011;1679;50.392;8.008;2023-07-16T05:50:49;4.83;;;2.77;;
3333;SDS011;1679;50.392;8.008;2023-07-16T05:53:16;3.60;;;2.80;;
3333;SDS011;1679;50.392;8.008;2023-07-16T05:55:41;4.63;;;2.73;;
3333;SDS011;1679;50.392;8.008;2023-07-16T05:58:07;5.20;;;2.90;;
3333;SDS011;1679;50.392;8.008;2023-07-16T06:00:33;5.33;;;2.70;;
3333;SDS011;1679;50.392;8.008;2023-07-16T06:03:01;5.07;;;3.07;;
3333;SDS011;1679;50.392;8.008;2023-07-16T06:05:27;4.93;;;2.73;;
3333;SDS011;1679;50.392;8.008;2023-07-16T06:07:57;3.53;;;2.50;;
3333;SDS011;1679;50.392;8.008;2023-07-16T06:10:24;3.83;;;3.43;;
3333;SDS011;1679;50.392;8.008;2023-07-16T06:12:49;6.80;;;3.60;;
3333;SDS011;1679;50.392;8.008;2023-07-16T06:15:15;3.63;;;3.23;;
3333;SDS011;1679;50.392;8.008;2023-07-16T06:17:40;5.40;;;3.13;;
3333;SDS011;1679;50.392;8.008;2023-07-16T06:20:06;5.80;;;3.47;;
3333;SDS011;1679;50.392;8.008;2023-07-16T06:22:33;7.10;;;3.50;;
3333;SDS011;1679;50.392;8.008;2023-07-16T06:24:58;5.73;;;3.60;;
3333;SDS011;1679;50.392;8.008;2023-07-16T06:27:24;4.73;;;3.23;;
3333;SDS011;1679;50.392;8.008;2023-07-16T06:29:50;3.27;;;3.07;;
3333;SDS011;1679;50.392;8.008;2023-07-16T06:32:17;7.23;;;3.40;;
3333;SDS011;1679;50.392;8.008;2023-07-16T06:34:44;3.93;;;3.30;;
3333;SDS011;1679;50.392;8.008;2023-07-16T06:37:09;7.77;;;3.50;;
3333;SDS011;1679;50.392;8.008;2023-07-16T06:39:35;6.70;;;3.13;;
3333;SDS011;1679;50.392;8.008;2023-07-16T06:42:00;4.10;;;2.70;;
3333;SDS011;1679;50.392;8.008;2023-07-16T06:44:26;7.10;;;3.50;;
3333;SDS011;1679;50.392;8.008;2023-07-16T06:46:52;6.20;;;4.00;;
3333;SDS011;1679;50.392;8.008;2023-07-16T06:49:19;5.30;;;3.40;;
3333;SDS011;1679;50.392;8.008;2023-07-16T06:51:46;4.53;;;3.63;;
3333;SDS011;1679;50.392;8.008;2023-07-16T06:54:12;7.83;;;3.33;;
3333;SDS011;1679;50.392;8.008;2023-07-16T06:56:39;5.00;;;3.07;;
3333;SDS011;1679;50.392;8.008;2023-07-16T06:59:05;6.60;;;3.10;;
3333;SDS011;1679;50.392;8.008;2023-07-16T07:01:30;3.47;;;3.00;;
3333;SDS011;1679;50.392;8.008;2023-07-16T07:03:56;4.63;;;2.87;;
3333;SDS011;1679;50.392;8.008;2023-07-16T07:06:21;4.40;;;3.60;;
3333;SDS011;1679;50.392;8.008;2023-07-16T07:08:47;4.90;;;3.00;;
3333;SDS011;1679;50.392;8.008;2023-07-16T07:11:13;5.97;;;3.47;;
3333;SDS011;1679;50.392;8.008;2023-07-16T07:13:38;4.07;;;3.27;;
3333;SDS011;1679;50.392;8.008;2023-07-16T07:16:04;7.03;;;3.87;;
3333;SDS011;1679;50.392;8.008;2023-07-16T07:18:29;6.33;;;3.67;;
3333;SDS011;1679;50.392;8.008;2023-07-16T07:20:55;6.27;;;3.13;;
3333;SDS011;1679;50.392;8.008;2023-07-16T07:23:20;8.57;;;3.30;;
3333;SDS011;1679;50.392;8.008;2023-07-16T07:25:49;6.90;;;3.50;;
3333;SDS011;1679;50.392;8.008;2023-07-16T07:28:19;4.53;;;3.60;;
3333;SDS011;1679;50.392;8.008;2023-07-16T07:30:45;4.47;;;3.00;;
3333;SDS011;1679;50.392;8.008;2023-07-16T07:33:11;4.30;;;3.27;;
3333;SDS011;1679;50.392;8.008;2023-07-16T07:35:37;5.67;;;3.40;;
3333;SDS011;1679;50.392;8.008;2023-07-16T07:38:02;3.73;;;3.40;;
3333;SDS011;1679;50.392;8.008;2023-07-16T07:40:29;3.83;;;2.70;;
3333;SDS011;1679;50.392;8.008;2023-07-16T07:42:54;3.50;;;2.73;;
3333;SDS011;1679;50.392;8.008;2023-07-16T07:45:20;5.10;;;3.10;;
3333;SDS011;1679;50.392;8.008;2023-07-16T07:47:45;4.27;;;2.80;;
3333;SDS011;1679;50.392;8.008;2023-07-16T07:50:11;8.67;;;3.10;;
3333;SDS011;1679;50.392;8.008;2023-07-16T07:52:37;3.13;;;2.83;;
3333;SDS011;1679;50.392;8.008;2023-07-16T07:55:02;3.10;;;2.50;;
3333;SDS011;1679;50.392;8.008;2023-07-16T07:57:29;3.87;;;3.23;;
3333;SDS011;1679;50.392;8.008;2023-07-16T07:59:54;3.17;;;2.90;;
3333;SDS011;1679;50.392;8.008;2023-07-16T08:02:22;4.43;;;2.97;;
3333;SDS011;1679;50.392;8.008;2023-07-16T08:04:52;4.60;;;3.10;;
3333;SDS011;1679;50.392;8.008;2023-07-16T08:07:21;4.30;;;2.80;;
3333;SDS011;1679;50.392;8.008;2023-07-16T08:09:47;3.83;;;3.10;;
3333;SDS011;1679;50.392;8.008;2023-07-16T08:12:13;2.90;;;2.60;;
3333;SDS011;1679;50.392;8.008;2023-07-16T08:14:40;3.73;;;3.17;;
3333;SDS011;1679;50.392;8.008;2023-07-16T08:17:06;5.13;;;3.23;;
3333;SDS011;1679;50.392;8.008;2023-07-16T08:19:32;3.50;;;3.00;;
3333;SDS011;1679;50.392;8.008;2023-07-16T08:21:57;4.83;;;3.00;;
3333;SDS011;1679;50.392;8.008;2023-07-16T08:24:24;5.17;;;2.70;;
3333;SDS011;1679;50.392;8.008;2023-07-16T08:26:50;4.20;;;3.60;;
3333;SDS011;1679;50.392;8.008;2023-07-16T08:29:17;3.73;;;3.43;;
3333;SDS011;1679;50.392;8.008;2023-07-16T08:31:42;4.83;;;3.40;;
3333;SDS011;1679;50.392;8.008;2023-07-16T08:34:08;4.07;;;3.10;;
3333;SDS011;1679;50.392;8.008;2023-07-16T08:36:35;3.87;;;3.30;;
3333;SDS011;1679;50.392;8.008;2023-07-16T08:39:03;4.00;;;2.80;;
3333;SDS011;1679;50.392;8.008;2023-07-16T08:41:28;3.73;;;3.33;;
3333;SDS011;1679;50.392;8.008;2023-07-16T08:43:54;6.87;;;3.53;;
3333;SDS011;1679;50.392;8.008;2023-07-16T08:46:21;3.50;;;3.20;;
3333;SDS011;1679;50.392;8.008;2023-07-16T08:48:47;4.73;;;3.20;;
3333;SDS011;1679;50.392;8.008;2023-07-16T08:51:16;7.20;;;3.30;;
3333;SDS011;1679;50.392;8.008;2023-07-16T08:53:44;7.00;;;3.20;;
3333;SDS011;1679;50.392;8.008;2023-07-16T08:56:09;6.00;;;3.50;;
3333;SDS011;1679;50.392;8.008;2023-07-16T08:58:35;3.47;;;3.17;;
3333;SDS011;1679;50.392;8.008;2023-07-16T09:01:02;3.70;;;2.67;;
3333;SDS011;1679;50.392;8.008;2023-07-16T09:03:29;5.03;;;3.13;;
3333;SDS011;1679;50.392;8.008;2023-07-16T09:05:55;4.53;;;3.80;;
3333;SDS011;1679;50.392;8.008;2023-07-16T09:08:20;6.03;;;3.07;;
3333;SDS011;1679;50.392;8.008;2023-07-16T09:10:53;5.60;;;3.30;;
3333;SDS011;1679;50.392;8.008;2023-07-16T09:13:20;3.63;;;3.30;;
3333;SDS011;1679;50.392;8.008;2023-07-16T09:15:50;3.83;;;3.53;;
3333;SDS011;1679;50.392;8.008;2023-07-16T09:18:20;4.87;;;3.50;;
3333;SDS011;1679;50.392;8.008;2023-07-16T09:20:46;3.27;;;3.07;;
3333;SDS011;1679;50.392;8.008;2023-07-16T09:23:26;3.93;;;3.50;;
3333;SDS011;1679;50.392;8.008;2023-07-16T09:25:53;3.53;;;3.33;;
3333;SDS011;1679;50.392;8.008;2023-07-16T09:28:19;4.03;;;3.67;;
3333;SDS011;1679;50.392;8.008;2023-07-16T09:30:45;4.37;;;3.93;;
3333;SDS011;1679;50.392;8.008;2023-07-16T09:33:21;4.63;;;3.73;;
3333;SDS011;1679;50.392;8.008;2023-07-16T09:35:51;4.00;;;3.70;;
3333;SDS011;1679;50.392;8.008;2023-07-16T09:38:17;5.03;;;3.70;;
3333;SDS011;1679;50.392;8.008;2023-07-16T09:40:43;4.00;;;3.80;;
3333;SDS011;1679;50.392;8.008;2023-07-16T09:43:09;7.33;;;4.40;;
3333;SDS011;1679;50.392;8.008;2023-07-16T09:45:36;4.00;;;3.63;;
3333;SDS011;1679;50.392;8.008;2023-07-16T09:48:02;4.57;;;4.17;;
3333;SDS011;1679;50.392;8.008;2023-07-16T09:50:29;5.87;;;4.30;;
3333;SDS011;1679;50.392;8.008;2023-07-16T09:52:57;4.03;;;3.57;;
3333;SDS011;1679;50.392;8.008;2023-07-16T09:55:23;4.40;;;4.03;;
3333;SDS011;1679;50.392;8.008;2023-07-16T09:57:50;4.07;;;3.77;;
3333;SDS011;1679;50.392;8.008;2023-07-16T10:00:18;4.50;;;4.10;;
3333;SDS011;1679;50.392;8.008;2023-07-16T10:02:46;7.30;;;4.10;;
3333;SDS011;1679;50.392;8.008;2023-07-16T10:05:15;3.90;;;3.53;;
3333;SDS011;1679;50.392;8.008;2023-07-16T10:07:43;5.90;;;4.40;;
3333;SDS011;1679;50.392;8.008;2023-07-16T10:10:20;6.20;;;4.33;;
3333;SDS011;1679;50.392;8.008;2023-07-16T10:12:55;4.60;;;4.10;;
3333;SDS011;1679;50.392;8.008;2023-07-16T10:15:27;4.63;;;4.20;;
3333;SDS011;1679;50.392;8.008;2023-07-16T10:17:54;3.80;;;3.50;;
3333;SDS011;1679;50.392;8.008;2023-07-16T10:20:30;4.60;;;4.20;;
3333;SDS011;1679;50.392;8.008;2023-07-16T10:23:13;5.60;;;4.60;;
3333;SDS011;1679;50.392;8.008;2023-07-16T10:25:41;4.07;;;3.67;;
3333;SDS011;1679;50.392;8.008;2023-07-16T10:28:23;4.63;;;4.03;;
3333;SDS011;1679;50.392;8.008;2023-07-16T10:30:49;3.77;;;3.47;;
3333;SDS011;1679;50.392;8.008;2023-07-16T10:33:15;3.33;;;3.03;;
3333;SDS011;1679;50.392;8.008;2023-07-16T10:35:41;5.03;;;3.50;;
3333;SDS011;1679;50.392;8.008;2023-07-16T10:38:07;5.20;;;3.90;;
3333;SDS011;1679;50.392;8.008;2023-07-16T10:40:32;4.67;;;3.77;;
3333;SDS011;1679;50.392;8.008;2023-07-16T10:43:04;3.63;;;3.37;;
3333;SDS011;1679;50.392;8.008;2023-07-16T10:45:30;3.10;;;2.80;;
3333;SDS011;1679;50.392;8.008;2023-07-16T10:47:56;3.80;;;3.50;;
3333;SDS011;1679;50.392;8.008;2023-07-16T10:50:22;4.83;;;3.30;;
3333;SDS011;1679;50.392;8.008;2023-07-16T10:52:50;8.03;;;3.53;;
3333;SDS011;1679;50.392;8.008;2023-07-16T10:55:17;3.23;;;3.00;;
3333;SDS011;1679;50.392;8.008;2023-07-16T10:57:43;4.60;;;3.10;;
3333;SDS011;1679;50.392;8.008;2023-07-16T11:00:09;3.47;;;3.17;;
3333;SDS011;1679;50.392;8.008;2023-07-16T11:02:38;4.43;;;3.17;;
3333;SDS011;1679;50.392;8.008;2023-07-16T11:05:15;6.00;;;3.43;;
3333;SDS011;1679;50.392;8.008;2023-07-16T11:07:47;3.60;;;3.30;;
3333;SDS011;1679;50.392;8.008;2023-07-16T11:10:29;3.40;;;3.20;;
3333;SDS011;1679;50.392;8.008;2023-07-16T11:12:55;3.83;;;3.50;;
3333;SDS011;1679;50.392;8.008;2023-07-16T11:15:33;5.43;;;3.37;;
3333;SDS011;1679;50.392;8.008;2023-07-16T11:18:00;7.13;;;3.57;;
3333;SDS011;1679;50.392;8.008;2023-07-16T11:20:26;3.93;;;3.40;;
3333;SDS011;1679;50.392;8.008;2023-07-16T11:22:52;4.00;;;3.70;;
3333;SDS011;1679;50.392;8.008;2023-07-16T11:25:17;4.60;;;3.30;;
3333;SDS011;1679;50.392;8.008;2023-07-16T11:27:45;4.87;;;3.50;;
3333;SDS011;1679;50.392;8.008;2023-07-16T11:30:10;4.37;;;4.07;;
3333;SDS011;1679;50.392;8.008;2023-07-16T11:32:41;4.47;;;3.40;;
3333;SDS011;1679;50.392;8.008;2023-07-16T11:35:08;4.30;;;3.90;;
3333;SDS011;1679;50.392;8.008;2023-07-16T11:37:41;5.43;;;3.77;;
3333;SDS011;1679;50.392;8.008;2023-07-16T11:40:08;6.10;;;3.83;;
3333;SDS011;1679;50.392;8.008;2023-07-16T11:42:41;4.67;;;3.33;;
3333;SDS011;1679;50.392;8.008;2023-07-16T11:45:17;3.33;;;3.00;;
3333;SDS011;1679;50.392;8.008;2023-07-16T11:47:46;4.33;;;3.80;;
3333;SDS011;1679;50.392;8.008;2023-07-16T11:50:12;4.27;;;3.60;;
3333;SDS011;1679;50.392;8.008;2023-07-16T11:52:39;11.33;;;3.47;;
3333;SDS011;1679;50.392;8.008;2023-07-16T11:55:05;12.00;;;3.73;;
3333;SDS011;1679;50.392;8.008;2023-07-16T11:57:31;6.80;;;3.60;;
3333;SDS011;1679;50.392;8.008;2023-07-16T11:59:58;5.20;;;4.37;;
3333;SDS011;1679;50.392;8.008;2023-07-16T12:02:25;4.37;;;3.80;;
3333;SDS011;1679;50.392;8.008;2023-07-16T12:04:52;4.73;;;4.43;;
3333;SDS011;1679;50.392;8.008;2023-07-16T12:07:36;3.93;;;3.53;;
3333;SDS011;1679;50.392;8.008;2023-07-16T12:10:03;6.13;;;4.60;;
3333;SDS011;1679;50.392;8.008;2023-07-16T12:12:30;5.27;;;4.30;;
3333;SDS011;1679;50.392;8.008;2023-07-16T12:14:56;4.50;;;4.10;;
3333;SDS011;1679;50.392;8.008;2023-07-16T12:17:22;5.10;;;4.50;;
3333;SDS011;1679;50.392;8.008;2023-07-16T12:19:49;4.80;;;4.30;;
3333;SDS011;1679;50.392;8.008;2023-07-16T12:22:16;5.07;;;4.67;;
3333;SDS011;1679;50.392;8.008;2023-07-16T12:24:42;5.67;;;5.00;;
3333;SDS011;1679;50.392;8.008;2023-07-16T12:27:08;5.07;;;4.57;;
3333;SDS011;1679;50.392;8.008;2023-07-16T12:29:33;9.87;;;7.30;;
3333;SDS011;1679;50.392;8.008;2023-07-16T12:32:00;7.83;;;5.33;;
3333;SDS011;1679;50.392;8.008;2023-07-16T12:34:26;5.43;;;4.10;;
3333;SDS011;1679;50.392;8.008;2023-07-16T12:36:51;9.77;;;4.40;;
3333;SDS011;1679;50.392;8.008;2023-07-16T12:39:19;4.80;;;4.40;;
3333;SDS011;1679;50.392;8.008;2023-07-16T12:41:45;5.40;;;4.90;;
3333;SDS011;1679;50.392;8.008;2023-07-16T12:44:12;4.97;;;4.60;;
3333;SDS011;1679;50.392;8.008;2023-07-16T12:46:37;5.17;;;4.77;;
3333;SDS011;1679;50.392;8.008;2023-07-16T12:49:03;4.87;;;4.53;;
3333;SDS011;1679;50.392;8.008;2023-07-16T12:51:29;5.40;;;4.43;;
3333;SDS011;1679;50.392;8.008;2023-07-16T12:53:55;4.53;;;4.13;;
3333;SDS011;1679;50.392;8.008;2023-07-16T12:56:20;4.90;;;4.47;;
3333;SDS011;1679;50.392;8.008;2023-07-16T12:58:47;9.63;;;4.70;;
3333;SDS011;1679;50.392;8.008;2023-07-16T13:01:13;6.10;;;5.00;;
3333;SDS011;1679;50.392;8.008;2023-07-16T13:03:38;5.30;;;4.80;;
3333;SDS011;1679;50.392;8.008;2023-07-16T13:06:04;6.23;;;5.60;;
3333;SDS011;1679;50.392;8.008;2023-07-16T13:08:31;7.90;;;4.80;;
3333;SDS011;1679;50.392;8.008;2023-07-16T13:10:57;5.57;;;4.60;;
3333;SDS011;1679;50.392;8.008;2023-07-16T13:13:24;5.20;;;4.70;;
3333;SDS011;1679;50.392;8.008;2023-07-16T13:15:51;6.00;;;4.90;;
3333;SDS011;1679;50.392;8.008;2023-07-16T13:18:17;5.97;;;5.40;;
3333;SDS011;1679;50.392;8.008;2023-07-16T13:20:43;6.33;;;5.23;;
3333;SDS011;1679;50.392;8.008;2023-07-16T13:23:09;6.67;;;5.57;;
3333;SDS011;1679;50.392;8.008;2023-07-16T13:25:36;5.30;;;4.80;;
3333;SDS011;1679;50.392;8.008;2023-07-16T13:28:03;5.83;;;5.23;;
3333;SDS011;1679;50.392;8.008;2023-07-16T13:30:30;6.60;;;6.00;;
3333;SDS011;1679;50.392;8.008;2023-07-16T13:32:55;5.17;;;4.77;;
3333;SDS011;1679;50.392;8.008;2023-07-16T13:35:24;6.80;;;6.30;;
3333;SDS011;1679;50.392;8.008;2023-07-16T13:37:50;6.13;;;5.53;;
3333;SDS011;1679;50.392;8.008;2023-07-16T13:40:16;6.10;;;5.60;;
3333;SDS011;1679;50.392;8.008;2023-07-16T13:42:44;5.97;;;5.33;;
3333;SDS011;1679;50.392;8.008;2023-07-16T13:45:11;5.20;;;4.80;;
3333;SDS011;1679;50.392;8.008;2023-07-16T13:47:36;8.97;;;4.97;;
3333;SDS011;1679;50.392;8.008;2023-07-16T13:50:02;5.83;;;5.30;;
3333;SDS011;1679;50.392;8.008;2023-07-16T13:52:27;7.60;;;5.57;;
3333;SDS011;1679;50.392;8.008;2023-07-16T13:54:53;6.67;;;5.80;;
3333;SDS011;1679;50.392;8.008;2023-07-16T13:57:19;5.70;;;5.30;;
3333;SDS011;1679;50.392;8.008;2023-07-16T13:59:45;5.93;;;5.37;;
3333;SDS011;1679;50.392;8.008;2023-07-16T14:02:11;6.20;;;5.60;;
3333;SDS011;1679;50.392;8.008;2023-07-16T14:04:36;5.80;;;5.20;;
3333;SDS011;1679;50.392;8.008;2023-07-16T14:07:02;7.00;;;5.33;;
3333;SDS011;1679;50.392;8.008;2023-07-16T14:09:27;5.47;;;5.07;;
3333;SDS011;1679;50.392;8.008;2023-07-16T14:11:53;5.47;;;4.97;;
3333;SDS011;1679;50.392;8.008;2023-07-16T14:14:21;7.70;;;4.63;;
3333;SDS011;1679;50.392;8.008;2023-07-16T14:16:47;5.50;;;5.00;;
3333;SDS011;1679;50.392;8.008;2023-07-16T14:19:14;6.40;;;5.80;;
3333;SDS011;1679;50.392;8.008;2023-07-16T14:21:39;8.93;;;5.70;;
3333;SDS011;1679;50.392;8.008;2023-07-16T14:24:05;5.57;;;5.07;;
3333;SDS011;1679;50.392;8.008;2023-07-16T14:26:31;5.70;;;4.87;;
3333;SDS011;1679;50.392;8.008;2023-07-16T14:28:58;5.07;;;4.70;;
3333;SDS011;1679;50.392;8.008;2023-07-16T14:31:24;5.60;;;5.20;;
3333;SDS011;1679;50.392;8.008;2023-07-16T14:33:49;6.63;;;5.20;;
3333;SDS011;1679;50.392;8.008;2023-07-16T14:36:15;6.90;;;5.70;;
3333;SDS011;1679;50.392;8.008;2023-07-16T14:38:42;7.37;;;5.60;;
3333;SDS011;1679;50.392;8.008;2023-07-16T14:41:08;5.60;;;4.83;;
3333;SDS011;1679;50.392;8.008;2023-07-16T14:43:34;5.23;;;4.73;;
3333;SDS011;1679;50.392;8.008;2023-07-16T14:46:00;5.70;;;5.20;;
3333;SDS011;1679;50.392;8.008;2023-07-16T14:48:25;7.23;;;5.53;;
3333;SDS011;1679;50.392;8.008;2023-07-16T14:50:54;6.00;;;4.23;;
3333;SDS011;1679;50.392;8.008;2023-07-16T14:53:20;6.00;;;5.00;;
3333;SDS011;1679;50.392;8.008;2023-07-16T14:55:48;5.63;;;4.30;;
3333;SDS011;1679;50.392;8.008;2023-07-16T14:58:15;5.17;;;4.73;;
3333;SDS011;1679;50.392;8.008;2023-07-16T15:00:44;5.90;;;5.40;;
3333;SDS011;1679;50.392;8.008;2023-07-16T15:03:10;5.17;;;4.77;;
3333;SDS011;1679;50.392;8.008;2023-07-16T15:05:36;6.03;;;4.80;;
3333;SDS011;1679;50.392;8.008;2023-07-16T15:08:02;7.47;;;5.20;;
3333;SDS011;1679;50.392;8.008;2023-07-16T15:10:28;8.47;;;4.70;;
3333;SDS011;1679;50.392;8.008;2023-07-16T15:12:54;4.83;;;4.30;;
3333;SDS011;1679;50.392;8.008;2023-07-16T15:15:19;5.97;;;4.97;;
3333;SDS011;1679;50.392;8.008;2023-07-16T15:17:45;5.77;;;5.27;;
3333;SDS011;1679;50.392;8.008;2023-07-16T15:20:11;7.40;;;4.83;;
3333;SDS011;1679;50.392;8.008;2023-07-16T15:22:38;5.33;;;4.60;;